Time;durP1;ratioP1;P1;durP2;ratioP2;P2;SDS_P1;SDS_P2;PMS_P1;PMS_P2;Temp;Humidity;BMP_temperature;BMP_pressure;BME280_temperature;BME280_humidity;BME280_pressure;Samples;Min_cycle;Max_cycle;Signal;HPM_P1;HPM_P2
2023/03/26 00:01:55;;;;;;;3.65;2.92;;;;;;;;;;5072338;28;20029;-84
2023/03/26 00:04:24;;;;;;;4.22;3.20;;;;;;;;;;5072897;28;20381;-84
2023/03/26 00:06:50;;;;;;;4.35;3.40;;;;;;;;;;5073023;28;20548;-84
2023/03/26 00:09:17;;;;;;;5.28;3.28;;;;;;;;;;5073255;28;20028;-84
2023/03/26 00:11:45;;;;;;;5.10;3.28;;;;;;;;;;5072974;28;20094;-84
2023/03/26 00:14:12;;;;;;;4.00;3.30;;;;;;;;;;5072955;28;20455;-83
2023/03/26 00:16:39;;;;;;;4.40;3.13;;;;;;;;;;5072403;28;20028;-83
2023/03/26 00:19:05;;;;;;;5.50;3.35;;;;;;;;;;5072567;28;20024;-84
2023/03/26 00:21:31;;;;;;;5.20;3.38;;;;;;;;;;5072626;28;20036;-84
2023/03/26 00:23:58;;;;;;;4.80;3.35;;;;;;;;;;5073122;28;20111;-84
2023/03/26 00:26:25;;;;;;;4.55;3.13;;;;;;;;;;5072945;28;20020;-83
2023/03/26 00:28:51;;;;;;;3.83;3.08;;;;;;;;;;5072770;28;20025;-84
2023/03/26 00:31:17;;;;;;;4.47;3.38;;;;;;;;;;5072869;28;20040;-85
2023/03/26 00:33:43;;;;;;;4.28;3.25;;;;;;;;;;5071783;28;20055;-84
2023/03/26 00:36:13;;;;;;;4.30;3.13;;;;;;;;;;5072504;28;20040;-83
2023/03/26 00:38:39;;;;;;;4.97;3.35;;;;;;;;;;5072192;28;20378;-85
2023/03/26 00:41:07;;;;;;;4.60;3.10;;;;;;;;;;5072392;28;20505;-85
2023/03/26 00:43:34;;;;;;;4.47;3.20;;;;;;;;;;5072172;28;20028;-83
2023/03/26 00:46:01;;;;;;;5.03;3.28;;;;;;;;;;5072953;28;20056;-84
2023/03/26 00:48:28;;;;;;;4.30;3.10;;;;;;;;;;5072330;28;20066;-84
2023/03/26 00:50:55;;;;;;;3.83;3.17;;;;;;;;;;5072419;28;20024;-85
2023/03/26 00:53:22;;;;;;;4.70;2.97;;;;;;;;;;5072208;28;20025;-84
2023/03/26 00:55:48;;;;;;;4.00;3.05;;;;;;;;;;5071715;28;20103;-85
2023/03/26 00:58:14;;;;;;;5.15;3.22;;;;;;;;;;5072170;28;20115;-85
2023/03/26 01:00:52;;;;;;;3.90;3.22;;;;;;;;;;5072175;28;20052;-85
2023/03/26 01:03:18;;;;;;;4.32;3.08;;;;;;;;;;5072246;28;20024;-85
2023/03/26 01:05:47;;;;;;;5.30;3.20;;;;;;;;;;5071704;28;20020;-85
2023/03/26 01:08:31;;;;;;;4.43;3.15;;;;;;;;;;5072149;28;20521;-85
2023/03/26 01:11:06;;;;;;;4.53;3.20;;;;;;;;;;5072342;28;20035;-84
2023/03/26 01:13:35;;;;;;;4.50;3.10;;;;;;;;;;5071812;28;20020;-84
2023/03/26 01:16:01;;;;;;;3.90;2.97;;;;;;;;;;5072265;28;20028;-85
2023/03/26 01:18:32;;;;;;;4.65;3.03;;;;;;;;;;5071878;28;20037;-84
2023/03/26 01:21:04;;;;;;;5.00;3.10;;;;;;;;;;5072015;28;20435;-84
2023/03/26 01:23:45;;;;;;;3.97;3.10;;;;;;;;;;5071569;28;20385;-84
2023/03/26 01:26:31;;;;;;;3.88;3.10;;;;;;;;;;5071857;28;20488;-84
2023/03/26 01:29:00;;;;;;;4.22;2.65;;;;;;;;;;5084870;28;20108;-84
2023/03/26 01:34:11;;;;;;;4.90;3.10;;;;;;;;;;5130502;27;20289;-85
2023/03/26 01:39:48;;;;;;;4.30;3.05;;;;;;;;;;5049305;28;20373;-84
2023/03/26 01:42:16;;;;;;;5.03;2.85;;;;;;;;;;5048202;28;20029;-86
2023/03/26 01:44:47;;;;;;;4.90;3.08;;;;;;;;;;5049344;28;20079;-85
2023/03/26 01:47:15;;;;;;;4.43;2.95;;;;;;;;;;5049217;28;20029;-85
2023/03/26 01:49:41;;;;;;;4.15;2.95;;;;;;;;;;5049152;28;20037;-85
2023/03/26 01:52:15;;;;;;;3.90;2.92;;;;;;;;;;5049376;28;20033;-84
2023/03/26 01:54:42;;;;;;;3.90;2.90;;;;;;;;;;5048874;28;20075;-85
2023/03/26 01:59:54;;;;;;;4.25;2.90;;;;;;;;;;5130668;27;20781;-84
2023/03/26 02:07:43;;;;;;;4.00;3.08;;;;;;;;;;5048996;28;20197;-86
2023/03/26 02:12:58;;;;;;;5.60;3.17;;;;;;;;;;5088992;27;1277873;-85
2023/03/26 02:15:24;;;;;;;3.65;2.78;;;;;;;;;;5130348;28;20066;-85
2023/03/26 02:17:51;;;;;;;3.30;2.85;;;;;;;;;;5130555;28;20038;-84
2023/03/26 02:20:18;;;;;;;3.92;2.88;;;;;;;;;;5130638;27;20023;-85
2023/03/26 02:22:46;;;;;;;4.30;3.08;;;;;;;;;;5130003;27;20047;-85
2023/03/26 02:25:13;;;;;;;4.00;3.03;;;;;;;;;;5130099;27;20020;-85
2023/03/26 02:27:39;;;;;;;3.58;2.78;;;;;;;;;;5129942;28;20219;-86
2023/03/26 02:30:07;;;;;;;3.85;3.08;;;;;;;;;;5129927;28;20015;-85
2023/03/26 02:32:33;;;;;;;3.47;2.97;;;;;;;;;;5129333;28;20110;-85
2023/03/26 02:35:00;;;;;;;3.65;2.85;;;;;;;;;;5129531;27;20024;-84
2023/03/26 02:37:26;;;;;;;3.63;2.75;;;;;;;;;;5129576;27;20024;-84
2023/03/26 02:39:52;;;;;;;5.75;3.00;;;;;;;;;;5129184;28;20031;-84
2023/03/26 02:42:18;;;;;;;3.63;2.80;;;;;;;;;;5129476;28;20023;-85
2023/03/26 02:44:44;;;;;;;3.90;2.67;;;;;;;;;;5128883;28;20468;-85
2023/03/26 02:47:10;;;;;;;4.38;3.00;;;;;;;;;;5129283;27;20501;-84
2023/03/26 02:49:36;;;;;;;4.05;2.72;;;;;;;;;;5129263;28;20085;-84
2023/03/26 02:52:05;;;;;;;3.85;2.83;;;;;;;;;;5129254;28;20134;-84
2023/03/26 02:54:32;;;;;;;4.07;3.00;;;;;;;;;;5129029;27;20029;-85
2023/03/26 02:56:58;;;;;;;5.20;2.90;;;;;;;;;;5129113;27;20019;-85
2023/03/26 02:59:24;;;;;;;4.47;2.78;;;;;;;;;;5128915;28;20102;-84
2023/03/26 03:01:50;;;;;;;4.28;2.92;;;;;;;;;;5128792;28;20139;-85
2023/03/26 03:04:16;;;;;;;3.92;2.67;;;;;;;;;;5128946;28;20114;-85
2023/03/26 03:06:43;;;;;;;3.88;2.70;;;;;;;;;;5128710;27;20364;-85
2023/03/26 03:09:10;;;;;;;3.40;2.70;;;;;;;;;;5128765;28;20023;-85
2023/03/26 03:11:36;;;;;;;3.60;2.85;;;;;;;;;;5128261;27;20062;-84
2023/03/26 03:14:02;;;;;;;3.95;2.70;;;;;;;;;;5128839;28;20468;-85
2023/03/26 03:16:28;;;;;;;2.58;2.38;;;;;;;;;;5128680;28;20101;-85
2023/03/26 03:18:55;;;;;;;4.03;2.80;;;;;;;;;;5128817;28;20019;-85
2023/03/26 03:21:22;;;;;;;3.95;2.90;;;;;;;;;;5128594;27;20107;-85
2023/03/26 03:23:48;;;;;;;4.40;3.00;;;;;;;;;;5117695;28;20031;-85
2023/03/26 03:26:16;;;;;;;3.75;2.67;;;;;;;;;;5114831;28;20028;-85
2023/03/26 03:28:43;;;;;;;3.95;2.67;;;;;;;;;;5114767;28;20507;-85
2023/03/26 03:31:10;;;;;;;3.53;2.78;;;;;;;;;;5114833;28;20055;-85
2023/03/26 03:33:36;;;;;;;3.83;3.00;;;;;;;;;;5114447;28;20023;-84
2023/03/26 03:36:09;;;;;;;3.53;2.83;;;;;;;;;;5114674;28;20126;-85
2023/03/26 03:38:35;;;;;;;3.47;2.83;;;;;;;;;;5114448;28;20100;-85
2023/03/26 03:41:01;;;;;;;4.35;3.15;;;;;;;;;;5114280;28;20432;-85
2023/03/26 03:43:27;;;;;;;5.00;3.05;;;;;;;;;;5114723;28;20027;-86
2023/03/26 03:45:53;;;;;;;3.63;2.70;;;;;;;;;;5114496;28;20076;-84
2023/03/26 03:48:19;;;;;;;4.72;2.92;;;;;;;;;;5114641;28;20031;-85
2023/03/26 03:50:45;;;;;;;3.88;2.80;;;;;;;;;;5114272;28;20028;-85
2023/03/26 03:53:14;;;;;;;3.28;2.65;;;;;;;;;;5114358;28;20023;-84
2023/03/26 03:55:40;;;;;;;3.40;2.83;;;;;;;;;;5114179;28;20023;-85
2023/03/26 03:58:08;;;;;;;4.28;2.83;;;;;;;;;;5114373;28;20031;-85
2023/03/26 04:00:37;;;;;;;4.47;2.90;;;;;;;;;;5114120;27;20026;-84
2023/03/26 04:03:05;;;;;;;4.05;2.90;;;;;;;;;;5114049;28;20413;-84
2023/03/26 04:05:31;;;;;;;3.67;2.75;;;;;;;;;;5113895;28;20027;-85
2023/03/26 04:07:58;;;;;;;4.15;3.10;;;;;;;;;;5114067;28;20028;-84
2023/03/26 04:10:26;;;;;;;3.95;2.92;;;;;;;;;;5114204;27;20028;-85
2023/03/26 04:12:52;;;;;;;4.55;3.10;;;;;;;;;;5113447;28;20054;-84
2023/03/26 04:15:18;;;;;;;4.13;3.03;;;;;;;;;;5114100;28;20028;-84
2023/03/26 04:17:44;;;;;;;3.67;2.85;;;;;;;;;;5113693;28;20177;-85
2023/03/26 04:20:14;;;;;;;3.75;3.03;;;;;;;;;;5113774;28;20024;-85
2023/03/26 04:22:41;;;;;;;3.28;2.67;;;;;;;;;;5113557;28;20139;-86
2023/03/26 04:25:07;;;;;;;3.55;2.90;;;;;;;;;;5113769;28;20028;-85
2023/03/26 04:27:37;;;;;;;3.70;2.90;;;;;;;;;;5113458;28;20028;-86
2023/03/26 04:30:05;;;;;;;5.18;3.33;;;;;;;;;;5113844;28;20031;-86
2023/03/26 04:32:34;;;;;;;3.92;3.08;;;;;;;;;;5113233;28;20035;-85
2023/03/26 04:35:02;;;;;;;4.47;3.00;;;;;;;;;;5112513;28;20031;-86
2023/03/26 04:37:31;;;;;;;4.38;3.20;;;;;;;;;;5113626;28;20024;-86
2023/03/26 04:39:58;;;;;;;5.45;3.28;;;;;;;;;;5113287;28;20019;-85
2023/03/26 04:42:24;;;;;;;4.22;2.97;;;;;;;;;;5113303;28;20106;-84
2023/03/26 04:44:51;;;;;;;4.00;3.17;;;;;;;;;;5113162;28;20054;-85
2023/03/26 04:47:20;;;;;;;4.95;3.22;;;;;;;;;;5113285;28;20024;-85
2023/03/26 04:49:47;;;;;;;4.82;3.47;;;;;;;;;;5112966;28;20024;-85
2023/03/26 04:52:14;;;;;;;5.30;3.38;;;;;;;;;;5113281;28;20490;-84
2023/03/26 04:54:41;;;;;;;3.95;3.05;;;;;;;;;;5112844;28;20027;-86
2023/03/26 04:59:49;;;;;;;4.93;3.38;;;;;;;;;;5068564;28;20449;-84
2023/03/26 05:02:16;;;;;;;4.68;3.30;;;;;;;;;;5069117;28;20428;-84
2023/03/26 05:04:44;;;;;;;5.18;3.60;;;;;;;;;;5068407;28;20036;-86
2023/03/26 05:07:11;;;;;;;5.05;3.47;;;;;;;;;;5068775;28;20027;-84
2023/03/26 05:09:37;;;;;;;4.80;3.20;;;;;;;;;;5068630;28;20029;-83
2023/03/26 05:12:03;;;;;;;5.90;3.65;;;;;;;;;;5068500;28;20469;-84
2023/03/26 05:14:29;;;;;;;5.10;3.30;;;;;;;;;;5068514;28;20024;-84
2023/03/26 05:16:55;;;;;;;4.68;3.53;;;;;;;;;;5068521;28;20021;-85
2023/03/26 05:19:21;;;;;;;4.50;3.40;;;;;;;;;;5068408;28;20028;-86
2023/03/26 05:21:47;;;;;;;4.95;3.55;;;;;;;;;;5068101;28;20032;-84
2023/03/26 05:24:14;;;;;;;5.25;3.47;;;;;;;;;;5068347;28;20488;-84
2023/03/26 05:26:39;;;;;;;4.75;3.75;;;;;;;;;;5068284;28;20024;-84
2023/03/26 05:29:06;;;;;;;4.43;3.40;;;;;;;;;;5068252;28;20390;-84
2023/03/26 05:31:32;;;;;;;5.18;3.60;;;;;;;;;;5067981;28;20159;-84
2023/03/26 05:33:59;;;;;;;4.68;3.60;;;;;;;;;;5068039;28;20102;-84
2023/03/26 05:36:27;;;;;;;4.93;3.50;;;;;;;;;;5068189;28;20478;-84
2023/03/26 05:38:53;;;;;;;4.43;3.60;;;;;;;;;;5067861;28;20037;-83
2023/03/26 05:41:19;;;;;;;4.40;3.53;;;;;;;;;;5068020;28;20493;-85
2023/03/26 05:43:46;;;;;;;5.47;3.75;;;;;;;;;;5067685;28;20056;-84
2023/03/26 05:46:13;;;;;;;4.88;3.72;;;;;;;;;;5068093;28;20136;-84
2023/03/26 05:48:39;;;;;;;5.72;3.63;;;;;;;;;;5067746;28;20116;-84
2023/03/26 05:51:05;;;;;;;5.03;3.50;;;;;;;;;;5067712;28;20043;-84
2023/03/26 05:53:31;;;;;;;5.55;3.80;;;;;;;;;;5067651;28;20035;-84
2023/03/26 05:55:57;;;;;;;6.25;3.60;;;;;;;;;;5067555;28;20021;-84
2023/03/26 05:58:25;;;;;;;5.00;3.47;;;;;;;;;;5067119;28;20103;-85
2023/03/26 06:01:07;;;;;;;5.07;3.35;;;;;;;;;;5067483;28;20120;-84
2023/03/26 06:03:33;;;;;;;5.80;3.95;;;;;;;;;;5067225;28;20017;-82
2023/03/26 06:05:59;;;;;;;4.93;3.67;;;;;;;;;;5067475;28;20047;-83
2023/03/26 06:08:26;;;;;;;5.95;4.00;;;;;;;;;;5067267;28;20112;-83
2023/03/26 06:11:00;;;;;;;4.55;3.63;;;;;;;;;;5055663;28;20048;-83
2023/03/26 06:13:26;;;;;;;5.65;3.70;;;;;;;;;;5054049;28;20029;-84
2023/03/26 06:15:53;;;;;;;6.57;3.72;;;;;;;;;;5053866;28;20036;-83
2023/03/26 06:18:19;;;;;;;6.20;3.70;;;;;;;;;;5054223;28;20028;-83
2023/03/26 06:20:45;;;;;;;4.90;3.95;;;;;;;;;;5054120;28;20029;-83
2023/03/26 06:23:11;;;;;;;6.65;3.70;;;;;;;;;;5054124;28;20183;-83
2023/03/26 06:25:37;;;;;;;4.20;3.38;;;;;;;;;;5054101;28;20580;-83
2023/03/26 06:28:04;;;;;;;5.35;3.72;;;;;;;;;;5054771;28;20080;-83
2023/03/26 06:30:30;;;;;;;4.78;3.47;;;;;;;;;;5053876;28;20493;-82
2023/03/26 06:32:56;;;;;;;5.28;3.53;;;;;;;;;;5053963;28;20041;-83
2023/03/26 06:35:22;;;;;;;4.88;3.55;;;;;;;;;;5053494;28;20037;-83
2023/03/26 06:37:48;;;;;;;3.80;3.25;;;;;;;;;;5053596;28;20036;-83
2023/03/26 06:40:14;;;;;;;5.22;3.60;;;;;;;;;;5054161;28;20021;-83
2023/03/26 06:42:40;;;;;;;4.28;3.38;;;;;;;;;;5053751;28;20036;-83
2023/03/26 06:45:06;;;;;;;4.85;3.45;;;;;;;;;;5053622;28;20460;-81
2023/03/26 06:47:32;;;;;;;5.15;3.38;;;;;;;;;;5055587;28;20025;-81
2023/03/26 06:49:59;;;;;;;5.10;3.38;;;;;;;;;;5054325;28;20088;-82
2023/03/26 06:52:25;;;;;;;5.55;3.40;;;;;;;;;;5053683;28;20017;-82
2023/03/26 06:54:51;;;;;;;5.07;3.35;;;;;;;;;;5056640;28;20055;-82
2023/03/26 06:57:17;;;;;;;4.72;3.38;;;;;;;;;;5054263;28;20035;-83
2023/03/26 06:59:43;;;;;;;4.22;3.15;;;;;;;;;;5052891;28;20132;-83
2023/03/26 07:02:10;;;;;;;4.18;3.08;;;;;;;;;;5053603;28;20063;-83
2023/03/26 07:04:36;;;;;;;4.53;3.38;;;;;;;;;;5052968;28;20027;-83
2023/03/26 07:07:02;;;;;;;5.90;3.28;;;;;;;;;;5053067;28;20021;-84
2023/03/26 07:09:29;;;;;;;4.47;3.00;;;;;;;;;;5053272;28;20064;-83
2023/03/26 07:11:56;;;;;;;4.88;2.97;;;;;;;;;;5053090;28;20031;-82
2023/03/26 07:14:23;;;;;;;3.88;3.00;;;;;;;;;;5052900;28;20108;-83
2023/03/26 07:16:49;;;;;;;6.07;3.20;;;;;;;;;;5052633;28;20462;-83
2023/03/26 07:19:15;;;;;;;5.15;2.90;;;;;;;;;;5052652;28;20036;-83
2023/03/26 07:21:41;;;;;;;3.42;2.90;;;;;;;;;;5051598;28;20474;-83
2023/03/26 07:24:10;;;;;;;3.72;2.78;;;;;;;;;;5053213;28;20029;-83
2023/03/26 07:29:34;;;;;;;3.65;2.80;;;;;;;;;;5084500;28;20438;-82
2023/03/26 07:40:27;;;;;;;3.92;2.70;;;;;;;;;;5129953;27;20378;-82
2023/03/26 07:48:20;;;;;;;3.70;2.67;;;;;;;;;;5048859;28;20381;-82
2023/03/26 07:50:46;;;;;;;4.15;2.80;;;;;;;;;;5048701;28;20033;-83
2023/03/26 07:53:12;;;;;;;4.32;2.60;;;;;;;;;;5048792;28;20052;-84
2023/03/26 07:55:49;;;;;;;4.53;2.80;;;;;;;;;;5048595;28;20021;-82
2023/03/26 08:01:03;;;;;;;4.60;2.60;;;;;;;;;;5088898;28;20428;-83
2023/03/26 08:06:36;;;;;;;4.55;2.80;;;;;;;;;;5089339;27;1256936;-83
2023/03/26 08:09:07;;;;;;;3.80;2.80;;;;;;;;;;5129397;28;20118;-84
2023/03/26 08:16:55;;;;;;;5.15;2.90;;;;;;;;;;5048740;28;20385;-83
2023/03/26 08:19:39;;;;;;;3.13;2.60;;;;;;;;;;5048844;28;20033;-83
2023/03/26 08:28:17;;;;;;;3.97;2.60;;;;;;;;;;5068777;28;20387;-81
2023/03/26 08:30:43;;;;;;;3.35;2.38;;;;;;;;;;5068678;28;20033;-81
2023/03/26 08:33:11;;;;;;;3.25;2.60;;;;;;;;;;5068617;28;20032;-83
2023/03/26 08:35:41;;;;;;;3.30;2.30;;;;;;;;;;5068383;28;20450;-83
2023/03/26 08:38:08;;;;;;;2.58;2.28;;;;;;;;;;5068688;28;20021;-83
2023/03/26 08:40:54;;;;;;;4.60;2.40;;;;;;;;;;5068565;28;20079;-83
2023/03/26 08:43:40;;;;;;;3.33;2.50;;;;;;;;;;5067584;28;20036;-83
2023/03/26 08:46:26;;;;;;;3.63;2.63;;;;;;;;;;5067276;28;20032;-83
2023/03/26 08:57:19;;;;;;;3.78;2.47;;;;;;;;;;5068866;28;20380;-82
2023/03/26 09:02:41;;;;;;;2.33;2.13;;;;;;;;;;5048606;28;20435;-84
2023/03/26 09:10:46;;;;;;;2.75;2.20;;;;;;;;;;5088933;27;20451;-82
2023/03/26 09:13:32;;;;;;;2.83;2.35;;;;;;;;;;5088802;28;20031;-82
2023/03/26 09:16:18;;;;;;;3.47;2.45;;;;;;;;;;5087658;28;20021;-83
2023/03/26 09:21:44;;;;;;;2.75;2.05;;;;;;;;;;5048977;28;20389;-83
2023/03/26 09:26:59;;;;;;;3.38;2.30;;;;;;;;;;5088882;28;20874;-84
2023/03/26 09:32:20;;;;;;;2.88;2.30;;;;;;;;;;5048920;28;20385;-83
2023/03/26 09:35:02;;;;;;;2.47;2.13;;;;;;;;;;5047872;28;20037;-84
2023/03/26 09:37:48;;;;;;;3.60;2.50;;;;;;;;;;5049117;28;20478;-83
2023/03/26 09:45:52;;;;;;;3.30;2.20;;;;;;;;;;5049401;28;20365;-83
2023/03/26 09:48:38;;;;;;;3.10;2.08;;;;;;;;;;5048698;28;20021;-83
2023/03/26 09:54:01;;;;;;;2.67;2.20;;;;;;;;;;5069085;28;20442;-82
2023/03/26 10:05:12;;;;;;;3.38;2.30;;;;;;;;;;5048288;28;20819;-84
2023/03/26 10:10:37;;;;;;;2.47;2.10;;;;;;;;;;5069104;28;20442;-83
2023/03/26 10:21:06;;;;;;;2.70;2.05;;;;;;;;;;5068595;28;20192;-83
2023/03/26 10:23:40;;;;;;;3.47;2.53;;;;;;;;;;5068568;28;20036;-83
2023/03/26 10:31:36;;;;;;;2.88;2.13;;;;;;;;;;5087586;27;1350062;-83
2023/03/26 10:36:43;;;;;;;2.47;2.10;;;;;;;;;;5048724;28;20374;-82
2023/03/26 10:39:28;;;;;;;2.88;2.10;;;;;;;;;;5048585;28;20075;-82
2023/03/26 10:42:15;;;;;;;3.05;2.13;;;;;;;;;;5048534;28;20034;-83
2023/03/26 10:50:08;;;;;;;3.13;2.10;;;;;;;;;;5088950;27;20187;-83
2023/03/26 10:52:37;;;;;;;2.85;2.10;;;;;;;;;;5088832;28;20028;-83
2023/03/26 10:55:10;;;;;;;4.03;2.10;;;;;;;;;;5088725;28;20086;-84
2023/03/26 10:57:52;;;;;;;1.98;1.75;;;;;;;;;;5088664;28;20058;-83
2023/03/26 11:00:24;;;;;;;2.40;1.92;;;;;;;;;;5088861;28;20029;-83
2023/03/26 11:03:09;;;;;;;2.58;1.92;;;;;;;;;;5088537;28;20541;-83
2023/03/26 11:05:44;;;;;;;2.55;1.80;;;;;;;;;;5088582;28;20020;-83
2023/03/26 11:08:14;;;;;;;2.88;1.90;;;;;;;;;;5088752;28;20485;-83
2023/03/26 11:13:27;;;;;;;2.60;2.20;;;;;;;;;;5069090;28;20429;-84
2023/03/26 11:15:59;;;;;;;2.30;2.03;;;;;;;;;;5069165;28;20028;-83
2023/03/26 11:18:43;;;;;;;3.05;2.08;;;;;;;;;;5068653;28;20023;-86
2023/03/26 11:21:14;;;;;;;3.90;2.10;;;;;;;;;;5068573;28;20017;-84
2023/03/26 11:23:48;;;;;;;2.63;2.00;;;;;;;;;;5068674;28;20532;-84
2023/03/26 11:26:16;;;;;;;3.40;2.20;;;;;;;;;;5069375;28;20035;-84
2023/03/26 11:31:33;;;;;;;2.28;1.90;;;;;;;;;;5044234;28;20139;-82
2023/03/26 11:34:04;;;;;;;2.70;2.10;;;;;;;;;;5029424;28;20033;-82
2023/03/26 11:36:31;;;;;;;2.88;1.98;;;;;;;;;;5029103;28;20025;-82
2023/03/26 11:38:59;;;;;;;2.55;1.85;;;;;;;;;;5029145;28;20087;-83
2023/03/26 11:41:26;;;;;;;2.97;1.83;;;;;;;;;;5029056;28;20459;-83
2023/03/26 11:43:55;;;;;;;1.83;1.65;;;;;;;;;;5028813;28;20540;-83
2023/03/26 11:46:22;;;;;;;2.20;1.95;;;;;;;;;;5028776;28;20057;-83
2023/03/26 11:48:50;;;;;;;2.08;1.88;;;;;;;;;;5028650;28;20139;-83
2023/03/26 11:51:26;;;;;;;2.55;2.03;;;;;;;;;;5029265;28;20037;-83
2023/03/26 11:53:53;;;;;;;2.10;1.70;;;;;;;;;;5028796;28;20057;-83
2023/03/26 11:58:59;;;;;;;2.20;1.85;;;;;;;;;;5088774;27;1266178;-82
2023/03/26 12:01:29;;;;;;;2.55;2.08;;;;;;;;;;5130460;27;20023;-83
2023/03/26 12:03:57;;;;;;;2.63;2.00;;;;;;;;;;5130008;27;20540;-83
2023/03/26 12:06:24;;;;;;;1.90;1.80;;;;;;;;;;5129570;27;20027;-83
2023/03/26 12:08:51;;;;;;;2.50;2.08;;;;;;;;;;5129886;28;20031;-83
2023/03/26 12:11:18;;;;;;;2.58;1.90;;;;;;;;;;5130339;27;20027;-83
2023/03/26 12:13:50;;;;;;;2.42;2.05;;;;;;;;;;5129681;28;20476;-83
2023/03/26 12:16:18;;;;;;;1.90;1.80;;;;;;;;;;5129913;28;20019;-84
2023/03/26 12:18:45;;;;;;;2.58;1.90;;;;;;;;;;5129371;28;20491;-83
2023/03/26 12:21:12;;;;;;;2.97;2.10;;;;;;;;;;5129847;27;20023;-84
2023/03/26 12:23:43;;;;;;;2.00;1.77;;;;;;;;;;5129551;28;20490;-84
2023/03/26 12:26:16;;;;;;;3.38;2.30;;;;;;;;;;5129763;28;20464;-83
2023/03/26 12:28:50;;;;;;;2.20;1.88;;;;;;;;;;5129727;28;20032;-84
2023/03/26 12:31:19;;;;;;;;;;;;;;;;;;5129975;28;20054;-82
2023/03/26 12:33:51;;;;;;;3.00;2.08;;;;;;;;;;5129382;28;19907;-83
2023/03/26 12:36:19;;;;;;;2.95;2.10;;;;;;;;;;5129971;27;20031;-82
2023/03/26 12:38:45;;;;;;;3.28;2.15;;;;;;;;;;5129135;28;20019;-82
2023/03/26 12:41:12;;;;;;;2.22;2.03;;;;;;;;;;5129177;28;20067;-84
2023/03/26 12:43:43;;;;;;;2.60;1.90;;;;;;;;;;5129094;28;20379;-83
2023/03/26 12:46:23;;;;;;;2.90;2.00;;;;;;;;;;5129416;28;20024;-83
2023/03/26 12:48:54;;;;;;;3.03;2.20;;;;;;;;;;5129061;28;20023;-84
2023/03/26 12:54:02;;;;;;;2.20;2.00;;;;;;;;;;5049291;28;20369;-82
2023/03/26 12:56:34;;;;;;;2.75;1.92;;;;;;;;;;5049208;28;20041;-82
2023/03/26 13:01:49;;;;;;;2.95;2.00;;;;;;;;;;5101290;27;20783;-83
2023/03/26 13:07:05;;;;;;;3.40;2.10;;;;;;;;;;5048846;28;20385;-83
2023/03/26 13:12:19;;;;;;;2.33;2.13;;;;;;;;;;5089070;27;1265390;-84
2023/03/26 13:17:42;;;;;;;2.53;2.00;;;;;;;;;;5068791;28;20438;-85
2023/03/26 13:30:58;;;;;;;2.15;1.80;;;;;;;;;;5088369;27;1282771;-82
2023/03/26 13:33:35;;;;;;;2.17;1.98;;;;;;;;;;5130301;28;20404;-83
2023/03/26 13:38:53;;;;;;;2.47;1.92;;;;;;;;;;5088932;27;1270731;-83
2023/03/26 13:46:46;;;;;;;2.67;2.00;;;;;;;;;;5068996;28;20437;-82
2023/03/26 13:49:14;;;;;;;2.33;1.97;;;;;;;;;;5069488;28;20037;-82
2023/03/26 13:57:10;;;;;;;3.17;2.20;;;;;;;;;;5048909;28;20388;-83
2023/03/26 13:59:40;;;;;;;1.88;1.77;;;;;;;;;;5049091;28;20375;-82
2023/03/26 14:02:20;;;;;;;1.85;1.73;;;;;;;;;;5049224;28;20029;-83
2023/03/26 14:04:49;;;;;;;2.92;1.90;;;;;;;;;;5048336;28;20387;-82
2023/03/26 14:07:25;;;;;;;2.38;1.95;;;;;;;;;;5048749;28;20021;-83
2023/03/26 14:09:54;;;;;;;2.00;1.65;;;;;;;;;;5048590;28;20021;-83
2023/03/26 14:12:24;;;;;;;2.90;2.00;;;;;;;;;;5048602;28;20029;-83
2023/03/26 14:17:46;;;;;;;2.90;2.13;;;;;;;;;;5068985;28;20383;-84
2023/03/26 14:20:32;;;;;;;2.22;1.67;;;;;;;;;;5067744;28;20031;-83
2023/03/26 14:28:42;;;;;;;2.50;1.98;;;;;;;;;;5089848;27;20374;-83
2023/03/26 14:34:13;;;;;;;2.95;2.00;;;;;;;;;;5090755;27;20374;-84
2023/03/26 14:36:59;;;;;;;2.53;1.85;;;;;;;;;;5107209;28;20032;-83
2023/03/26 14:42:19;;;;;;;2.10;1.90;;;;;;;;;;5050595;28;20423;-83
2023/03/26 14:45:05;;;;;;;2.15;1.83;;;;;;;;;;5050344;28;20041;-83
2023/03/26 14:47:35;;;;;;;2.58;1.90;;;;;;;;;;5048118;28;20099;-85
2023/03/26 14:50:21;;;;;;;1.80;1.70;;;;;;;;;;5048937;28;20021;-84
2023/03/26 14:52:48;;;;;;;1.88;1.67;;;;;;;;;;5047488;28;20071;-84
2023/03/26 14:55:34;;;;;;;3.33;1.88;;;;;;;;;;5049703;28;20025;-84
2023/03/26 14:58:20;;;;;;;1.98;1.70;;;;;;;;;;5048857;28;20543;-83
2023/03/26 15:03:53;;;;;;;2.45;1.92;;;;;;;;;;5049088;28;20381;-83
2023/03/26 15:09:20;;;;;;;2.50;1.90;;;;;;;;;;5049711;28;20373;-83
2023/03/26 15:11:57;;;;;;;2.50;2.00;;;;;;;;;;5049911;28;20021;-83
2023/03/26 15:17:16;;;;;;;2.05;1.77;;;;;;;;;;5051059;28;20377;-83
2023/03/26 15:20:02;;;;;;;1.80;1.70;;;;;;;;;;5050339;28;20029;-83
2023/03/26 15:25:30;;;;;;;2.55;1.90;;;;;;;;;;5070041;28;20426;-82
2023/03/26 15:28:05;;;;;;;2.45;2.00;;;;;;;;;;5068675;28;20082;-82
2023/03/26 15:30:51;;;;;;;3.33;2.47;;;;;;;;;;5069882;28;20020;-82
2023/03/26 15:38:57;;;;;;;2.92;2.00;;;;;;;;;;5090117;27;20378;-84
2023/03/26 15:41:28;;;;;;;2.55;2.10;;;;;;;;;;5090233;28;20032;-83
2023/03/26 15:49:32;;;;;;;2.58;2.10;;;;;;;;;;5049536;28;20377;-83
2023/03/26 15:52:05;;;;;;;2.28;2.00;;;;;;;;;;5048950;28;20125;-84
2023/03/26 15:54:51;;;;;;;2.60;1.90;;;;;;;;;;5049911;28;20075;-83
2023/03/26 16:00:14;;;;;;;2.28;2.03;;;;;;;;;;5050139;28;20128;-84
2023/03/26 16:08:06;;;;;;;2.80;2.05;;;;;;;;;;5050282;28;20208;-82
2023/03/26 16:10:32;;;;;;;;;;;;;;;;;;5050239;28;20041;-81
2023/03/26 16:13:18;;;;;;;2.20;1.95;;;;;;;;;;5049926;28;19912;-80
2023/03/26 16:15:55;;;;;;;2.25;2.00;;;;;;;;;;5048574;28;20026;-83
2023/03/26 16:18:27;;;;;;;2.95;2.38;;;;;;;;;;5049839;28;20033;-83
2023/03/26 16:21:14;;;;;;;5.18;2.42;;;;;;;;;;5049817;28;20433;-84
2023/03/26 16:26:18;;;;;;;2.30;2.05;;;;;;;;;;5069900;28;20516;-83
2023/03/26 16:31:26;;;;;;;2.97;2.33;;;;;;;;;;5069834;28;20425;-81
2023/03/26 16:36:35;;;;;;;4.10;2.42;;;;;;;;;;5049877;28;20785;-82
2023/03/26 16:44:27;;;;;;;3.10;2.40;;;;;;;;;;5068550;28;20853;-82
2023/03/26 16:47:13;;;;;;;3.50;2.50;;;;;;;;;;5068650;28;20423;-82
2023/03/26 16:58:15;;;;;;;4.00;2.70;;;;;;;;;;5049667;28;20427;-81
2023/03/26 17:03:34;;;;;;;3.60;2.70;;;;;;;;;;5069612;28;20376;-81
2023/03/26 17:08:43;;;;;;;4.03;2.72;;;;;;;;;;5109983;27;20122;-82
2023/03/26 17:11:29;;;;;;;4.95;2.67;;;;;;;;;;5110456;28;20366;-83
2023/03/26 17:16:35;;;;;;;4.45;2.75;;;;;;;;;;5049388;28;20186;-83
2023/03/26 17:19:13;;;;;;;4.40;3.05;;;;;;;;;;5049405;28;20021;-81
2023/03/26 17:24:39;;;;;;;4.25;3.00;;;;;;;;;;5089954;27;20431;-81
2023/03/26 17:27:26;;;;;;;5.05;2.83;;;;;;;;;;5089772;28;20503;-82
2023/03/26 17:32:47;;;;;;;4.32;2.90;;;;;;;;;;5088559;27;1297064;-81
2023/03/26 17:35:14;;;;;;;4.70;2.80;;;;;;;;;;5129263;28;20114;-82
2023/03/26 17:37:44;;;;;;;5.53;2.90;;;;;;;;;;5130791;27;20571;-82
2023/03/26 17:40:30;;;;;;;4.97;3.20;;;;;;;;;;5130609;27;20033;-81
2023/03/26 17:43:05;;;;;;;4.18;2.90;;;;;;;;;;5130455;28;20230;-81
2023/03/26 17:45:34;;;;;;;4.72;3.28;;;;;;;;;;5130524;28;20472;-82
2023/03/26 17:48:04;;;;;;;4.45;2.97;;;;;;;;;;5130417;28;20298;-82
2023/03/26 17:50:50;;;;;;;4.60;3.13;;;;;;;;;;5130177;28;20062;-81
2023/03/26 17:53:19;;;;;;;4.95;3.30;;;;;;;;;;5129384;28;20426;-82
2023/03/26 17:55:45;;;;;;;5.90;3.55;;;;;;;;;;5130071;28;20475;-82
2023/03/26 17:58:21;;;;;;;4.85;3.33;;;;;;;;;;5130265;28;20428;-82
2023/03/26 18:00:50;;;;;;;4.72;3.28;;;;;;;;;;5129996;28;20106;-82
2023/03/26 18:06:04;;;;;;;5.95;3.30;;;;;;;;;;5089522;27;1272186;-82
2023/03/26 18:08:51;;;;;;;4.78;3.40;;;;;;;;;;5130419;27;20134;-82
2023/03/26 18:14:23;;;;;;;5.07;3.47;;;;;;;;;;5131058;27;20379;-82
2023/03/26 18:16:50;;;;;;;4.43;3.35;;;;;;;;;;5129675;28;20027;-81
2023/03/26 18:19:18;;;;;;;5.47;3.50;;;;;;;;;;5130770;27;20541;-81
2023/03/26 18:21:58;;;;;;;5.15;3.40;;;;;;;;;;5130217;27;20383;-81
2023/03/26 18:27:10;;;;;;;5.72;3.45;;;;;;;;;;5049565;28;20377;-81
2023/03/26 18:29:37;;;;;;;4.60;3.38;;;;;;;;;;5049360;28;20113;-82
2023/03/26 18:34:51;;;;;;;5.40;3.60;;;;;;;;;;5049737;28;20373;-82
2023/03/26 18:37:19;;;;;;;4.18;3.28;;;;;;;;;;5049793;28;20044;-82
2023/03/26 18:39:56;;;;;;;4.40;3.33;;;;;;;;;;5049567;28;20108;-81
2023/03/26 18:42:23;;;;;;;4.80;3.53;;;;;;;;;;5049956;28;20455;-82
2023/03/26 18:44:50;;;;;;;5.40;3.60;;;;;;;;;;5049874;28;20044;-82
2023/03/26 18:47:16;;;;;;;6.35;3.67;;;;;;;;;;5049697;28;20037;-82
2023/03/26 18:49:44;;;;;;;5.53;3.55;;;;;;;;;;5049525;28;20055;-82
2023/03/26 18:52:14;;;;;;;7.47;3.72;;;;;;;;;;5049817;28;20029;-82
2023/03/26 18:54:40;;;;;;;6.35;3.75;;;;;;;;;;5049979;28;20040;-82
2023/03/26 18:57:10;;;;;;;5.07;3.53;;;;;;;;;;5049656;28;20059;-82
2023/03/26 18:59:37;;;;;;;5.53;3.70;;;;;;;;;;5049971;28;20036;-83
2023/03/26 19:02:12;;;;;;;4.95;3.40;;;;;;;;;;5049764;28;20463;-82
2023/03/26 19:04:39;;;;;;;5.95;3.63;;;;;;;;;;5049182;28;20116;-82
2023/03/26 19:07:09;;;;;;;5.22;3.53;;;;;;;;;;5050237;28;20037;-82
2023/03/26 19:09:35;;;;;;;6.05;3.60;;;;;;;;;;5055614;28;20028;-82
2023/03/26 19:12:06;;;;;;;5.22;3.85;;;;;;;;;;5063904;28;20031;-82
2023/03/26 19:14:35;;;;;;;6.28;4.00;;;;;;;;;;5060113;28;20506;-82
2023/03/26 19:17:02;;;;;;;5.55;3.80;;;;;;;;;;5049669;28;20036;-82
2023/03/26 19:19:31;;;;;;;5.40;3.88;;;;;;;;;;5049657;28;20043;-82